createdAt,value
2022-11-15T00:02:01.416Z,27.75
2022-11-15T00:04:47.934Z,28.02
2022-11-15T00:07:54.562Z,25.80
2022-11-15T00:10:39.742Z,25.75
2022-11-15T00:13:26.687Z,25.15
2022-11-15T00:16:12.526Z,27.13
2022-11-15T00:18:59.272Z,30.52
2022-11-15T00:21:44.978Z,26.90
2022-11-15T00:24:30.929Z,30.27
2022-11-15T00:27:17.232Z,29.20
2022-11-15T00:30:03.158Z,25.65
2022-11-15T00:32:51.712Z,26.38
2022-11-15T00:35:37.451Z,28.30
2022-11-15T00:38:23.572Z,26.65
2022-11-15T00:41:10.328Z,26.92
2022-11-15T00:43:55.881Z,25.60
2022-11-15T00:46:42.046Z,31.92
2022-11-15T00:49:27.758Z,25.70
2022-11-15T00:52:13.545Z,27.83
2022-11-15T00:54:59.622Z,28.05
2022-11-15T00:57:46.708Z,30.88
2022-11-15T01:00:32.538Z,29.10
2022-11-15T01:03:18.396Z,28.17
2022-11-15T01:06:05.139Z,29.15
2022-11-15T01:08:51.218Z,28.13
2022-11-15T01:11:37.311Z,28.45
2022-11-15T01:14:25.592Z,28.20
2022-11-15T01:17:11.974Z,24.53
2022-11-15T01:19:58.319Z,27.50
2022-11-15T01:22:43.983Z,29.63
2022-11-15T01:25:30.105Z,26.42
2022-11-15T01:28:16.447Z,24.30
2022-11-15T01:31:08.155Z,27.70
2022-11-15T01:33:53.638Z,29.95
2022-11-15T01:36:39.643Z,28.15
2022-11-15T01:39:25.429Z,24.10
2022-11-15T01:42:15.447Z,27.33
2022-11-15T01:45:01.663Z,30.13
2022-11-15T01:47:51.994Z,29.65
2022-11-15T01:50:37.668Z,25.15
2022-11-15T01:53:26.267Z,26.38
2022-11-15T01:56:17.010Z,28.90
2022-11-15T01:59:06.862Z,29.80
2022-11-15T02:01:52.904Z,33.42
2022-11-15T02:04:47.350Z,31.63
2022-11-15T02:07:35.453Z,27.13
2022-11-15T02:10:25.746Z,27.25
2022-11-15T02:13:12.072Z,29.73
2022-11-15T02:16:16.335Z,34.22
2022-11-15T02:19:33.087Z,28.98
2022-11-15T02:22:21.055Z,27.88
2022-11-15T02:25:41.428Z,32.05
2022-11-15T02:28:46.531Z,28.70
2022-11-15T02:31:32.422Z,30.02
2022-11-15T02:34:43.702Z,33.17
2022-11-15T02:37:48.191Z,29.38
2022-11-15T02:40:52.793Z,28.55
2022-11-15T02:44:03.850Z,28.57
2022-11-15T02:47:15.521Z,26.55
2022-11-15T02:50:10.462Z,30.17
2022-11-15T02:52:57.155Z,28.73
2022-11-15T02:55:48.304Z,29.85
2022-11-15T02:59:01.101Z,29.17
2022-11-15T03:02:14.852Z,28.10
2022-11-15T03:05:26.671Z,27.10
2022-11-15T03:08:27.685Z,28.88
2022-11-15T03:11:17.120Z,27.75
2022-11-15T03:14:35.549Z,28.27
2022-11-15T03:17:42.377Z,29.83
2022-11-15T03:20:30.812Z,30.70
2022-11-15T03:23:18.820Z,28.58
2022-11-15T03:26:08.780Z,29.38
2022-11-15T03:29:04.126Z,27.53
2022-11-15T03:32:01.184Z,27.40
2022-11-15T03:34:58.948Z,31.20
2022-11-15T03:38:04.271Z,25.88
2022-11-15T03:40:57.945Z,26.52
2022-11-15T03:44:28.530Z,27.60
2022-11-15T03:47:23.342Z,25.02
2022-11-15T03:50:15.681Z,32.05
2022-11-15T03:53:01.970Z,28.40
2022-11-15T03:55:47.931Z,27.50
2022-11-15T03:58:35.974Z,29.00
2022-11-15T04:01:22.007Z,27.77
2022-11-15T04:04:08.460Z,27.48
2022-11-15T04:06:54.398Z,29.55
2022-11-15T04:09:59.984Z,29.45
2022-11-15T04:12:48.819Z,26.83
2022-11-15T04:15:35.295Z,27.33
2022-11-15T04:18:21.276Z,26.65
2022-11-15T04:21:27.104Z,26.67
2022-11-15T04:24:15.978Z,26.45
2022-11-15T04:27:02.275Z,28.83
2022-11-15T04:29:48.325Z,27.58
2022-11-15T04:32:34.625Z,29.40
2022-11-15T04:35:20.644Z,27.50
2022-11-15T04:38:09.266Z,26.20
2022-11-15T04:40:54.980Z,26.80
2022-11-15T04:43:40.659Z,30.83
2022-11-15T04:46:27.015Z,29.70
2022-11-15T04:49:13.425Z,28.48
2022-11-15T04:51:59.586Z,27.00
2022-11-15T04:54:46.191Z,26.57
2022-11-15T04:57:32.015Z,28.85
2022-11-15T05:00:18.772Z,35.35
2022-11-15T05:03:23.006Z,29.40
2022-11-15T05:06:09.562Z,24.23
2022-11-15T05:08:56.085Z,28.57
2022-11-15T05:11:42.482Z,27.60
2022-11-15T05:14:28.345Z,31.88
2022-11-15T05:17:14.397Z,30.30
2022-11-15T05:20:00.388Z,29.45
2022-11-15T05:22:46.445Z,29.00
2022-11-15T05:25:32.272Z,30.38
2022-11-15T05:28:18.136Z,27.80
2022-11-15T05:31:04.115Z,26.63
2022-11-15T05:33:50.850Z,27.88
2022-11-15T05:36:44.467Z,28.20
2022-11-15T05:39:30.536Z,27.45
2022-11-15T05:42:17.443Z,27.70
2022-11-15T05:45:07.032Z,29.40
2022-11-15T05:47:54.823Z,30.38
2022-11-15T05:50:45.233Z,29.33
2022-11-15T05:53:32.294Z,26.50
2022-11-15T05:56:18.468Z,27.10
2022-11-15T05:59:04.730Z,29.85
2022-11-15T06:01:50.757Z,29.27
2022-11-15T06:04:36.807Z,33.90
2022-11-15T06:07:23.296Z,29.05
2022-11-15T06:10:09.773Z,30.00
2022-11-15T06:12:59.691Z,29.38
2022-11-15T06:15:45.519Z,26.25
2022-11-15T06:18:34.983Z,28.30
2022-11-15T06:21:21.076Z,31.15
2022-11-15T06:24:07.724Z,34.55
2022-11-15T06:26:54.271Z,28.15
2022-11-15T06:29:40.131Z,26.48
2022-11-15T06:32:25.933Z,28.97
2022-11-15T06:35:11.817Z,29.77
2022-11-15T06:38:10.032Z,29.52
2022-11-15T06:40:55.678Z,30.30
2022-11-15T06:43:41.872Z,30.67
2022-11-15T06:46:28.308Z,29.40
2022-11-15T06:49:14.426Z,32.00
2022-11-15T06:52:00.586Z,28.13
2022-11-15T06:54:46.882Z,28.58
2022-11-15T06:57:33.585Z,29.83
2022-11-15T07:00:21.316Z,27.97
2022-11-15T07:03:07.393Z,27.67
2022-11-15T07:05:57.449Z,30.48
2022-11-15T07:08:45.722Z,32.53
2022-11-15T07:11:31.608Z,26.80
2022-11-15T07:14:17.564Z,26.23
2022-11-15T07:17:06.260Z,29.00
2022-11-15T07:19:52.790Z,28.58
2022-11-15T07:22:38.628Z,29.08
2022-11-15T07:25:24.472Z,26.55
2022-11-15T07:28:10.589Z,28.90
2022-11-15T07:30:56.656Z,26.75
2022-11-15T07:33:42.510Z,27.00
2022-11-15T07:36:28.056Z,26.48
2022-11-15T07:39:15.311Z,26.92
2022-11-15T07:42:20.176Z,24.93
2022-11-15T07:45:06.453Z,23.65
2022-11-15T07:47:52.071Z,24.48
2022-11-15T07:50:38.320Z,25.40
2022-11-15T07:53:26.214Z,29.05
2022-11-15T07:56:13.376Z,26.87
2022-11-15T07:59:00.627Z,29.73
2022-11-15T08:01:46.781Z,27.15
2022-11-15T08:04:32.407Z,29.13
2022-11-15T08:07:18.561Z,27.88
2022-11-15T08:10:05.274Z,27.53
2022-11-15T08:13:05.582Z,27.45
2022-11-15T08:15:57.405Z,30.65
2022-11-15T08:18:43.601Z,30.10
2022-11-15T08:21:29.581Z,25.67
2022-11-15T08:24:16.071Z,27.47
2022-11-15T08:27:02.714Z,27.98
2022-11-15T08:29:50.469Z,27.23
2022-11-15T08:32:37.302Z,25.38
2022-11-15T08:35:28.640Z,27.90
2022-11-15T08:38:15.482Z,26.93
2022-11-15T08:41:07.228Z,26.73
2022-11-15T08:43:53.116Z,27.52
2022-11-15T08:46:38.786Z,26.02
2022-11-15T08:49:24.902Z,25.85
2022-11-15T08:52:10.708Z,33.10
2022-11-15T08:54:56.656Z,24.92
2022-11-15T08:57:42.641Z,30.42
2022-11-15T09:00:28.840Z,26.88
2022-11-15T09:03:14.542Z,27.23
2022-11-15T09:06:02.119Z,24.83
2022-11-15T09:08:48.803Z,24.35
2022-11-15T09:11:34.942Z,25.08
2022-11-15T09:14:20.593Z,25.35
2022-11-15T09:17:10.119Z,26.25
2022-11-15T09:19:56.149Z,24.63
2022-11-15T09:22:42.165Z,26.10
2022-11-15T09:25:28.559Z,29.05
2022-11-15T09:28:15.114Z,29.48
2022-11-15T09:31:05.207Z,28.00
2022-11-15T09:33:51.394Z,24.53
2022-11-15T09:36:37.121Z,28.75
2022-11-15T09:39:22.892Z,25.10
2022-11-15T09:42:30.069Z,28.15
2022-11-15T09:45:33.032Z,26.38
2022-11-15T09:48:56.789Z,36.87
2022-11-15T09:51:56.294Z,27.70
2022-11-15T09:57:47.778Z,27.58
2022-11-15T10:00:45.889Z,29.50
2022-11-15T10:03:20.574Z,28.13
2022-11-15T10:05:49.863Z,28.23
2022-11-15T10:08:36.100Z,28.63
2022-11-15T10:13:59.213Z,29.00
2022-11-15T10:17:04.728Z,25.57
2022-11-15T10:19:54.080Z,26.95
2022-11-15T10:22:36.132Z,26.67
2022-11-15T10:25:20.326Z,27.73
2022-11-15T10:28:16.971Z,29.65
2022-11-15T10:30:47.679Z,30.50
2022-11-15T10:33:40.216Z,27.98
2022-11-15T10:36:10.959Z,31.95
2022-11-15T10:38:50.584Z,32.30
2022-11-15T10:41:19.716Z,27.80
2022-11-15T10:44:04.157Z,25.57
2022-11-15T10:46:46.033Z,27.83
2022-11-15T10:49:20.099Z,24.83
2022-11-15T10:51:56.017Z,27.63
2022-11-15T10:54:34.980Z,29.48
2022-11-15T10:57:13.564Z,24.40
2022-11-15T10:59:47.732Z,24.75
2022-11-15T11:02:40.238Z,25.83
2022-11-15T11:05:44.307Z,28.30
2022-11-15T11:08:12.262Z,24.08
2022-11-15T11:11:01.224Z,28.23
2022-11-15T11:13:31.118Z,26.48
2022-11-15T11:16:14.987Z,25.85
2022-11-15T11:19:14.916Z,25.20
2022-11-15T11:22:00.108Z,27.58
2022-11-15T11:24:52.046Z,31.53
2022-11-15T11:27:36.793Z,28.40
2022-11-15T11:30:19.980Z,26.77
2022-11-15T11:32:55.410Z,25.77
2022-11-15T11:35:30.758Z,28.35
2022-11-15T11:38:48.981Z,25.53
2022-11-15T11:41:39.023Z,30.73
2022-11-15T11:44:30.864Z,30.08
2022-11-15T11:47:05.180Z,30.00
2022-11-15T11:49:54.022Z,26.15
2022-11-15T11:52:31.403Z,30.27
2022-11-15T11:55:23.297Z,29.80
2022-11-15T11:58:24.531Z,25.88
2022-11-15T12:00:59.692Z,25.23
2022-11-15T12:03:32.041Z,28.50
2022-11-15T12:06:03.944Z,26.00
2022-11-15T12:08:41.346Z,29.73
2022-11-15T12:11:31.193Z,29.33
2022-11-15T12:14:02.751Z,26.58
2022-11-15T12:16:33.379Z,29.60
2022-11-15T12:19:04.197Z,34.83
2022-11-15T12:21:43.397Z,31.88
2022-11-15T12:24:28.254Z,35.55
2022-11-15T12:27:21.973Z,35.65
2022-11-15T12:29:57.721Z,32.88
2022-11-15T12:32:35.030Z,26.60
2022-11-15T12:35:04.517Z,31.40
2022-11-15T12:37:41.936Z,32.45
2022-11-15T12:40:21.099Z,30.38
2022-11-15T12:43:10.253Z,36.47
2022-11-15T12:45:40.112Z,35.50
2022-11-15T12:48:38.650Z,36.33
2022-11-15T12:51:06.533Z,32.83
2022-11-15T12:53:36.399Z,33.00
2022-11-15T12:56:18.448Z,34.42
2022-11-15T12:58:50.310Z,35.80
2022-11-15T13:01:33.560Z,39.17
2022-11-15T13:04:28.505Z,37.80
2022-11-15T13:07:00.001Z,35.00
2022-11-15T13:09:33.459Z,39.75
2022-11-15T13:12:03.080Z,43.97
2022-11-15T13:14:58.094Z,47.25
2022-11-15T13:17:35.080Z,53.92
2022-11-15T13:20:24.108Z,48.22
2022-11-15T13:23:04.605Z,51.58
2022-11-15T13:25:41.121Z,55.47
2022-11-15T13:28:11.388Z,48.65
2022-11-15T13:30:39.076Z,52.83
2022-11-15T13:33:17.255Z,50.92
2022-11-15T13:35:49.283Z,58.58
2022-11-15T13:38:37.253Z,51.53
2022-11-15T13:41:21.669Z,50.65
2022-11-15T13:43:54.003Z,50.97
2022-11-15T13:46:25.859Z,48.33
2022-11-15T13:48:55.010Z,43.53
2022-11-15T13:51:46.213Z,55.23
2022-11-15T13:54:13.943Z,55.08
2022-11-15T13:56:49.194Z,47.25
2022-11-15T13:59:29.714Z,56.00
2022-11-15T14:02:00.022Z,48.92
2022-11-15T14:04:30.985Z,56.60
2022-11-15T14:07:01.199Z,52.72
2022-11-15T14:09:37.726Z,46.78
2022-11-15T14:12:33.293Z,49.67
2022-11-15T14:15:03.562Z,47.78
2022-11-15T14:17:31.203Z,51.27
2022-11-15T14:19:59.508Z,55.92
2022-11-15T14:22:30.453Z,52.45
2022-11-15T14:25:16.465Z,59.53
2022-11-15T14:27:46.283Z,48.50
2022-11-15T14:30:18.327Z,59.87
2022-11-15T14:32:48.657Z,57.60
2022-11-15T14:35:21.610Z,50.83
2022-11-15T14:37:49.459Z,47.15
2022-11-15T14:40:19.866Z,50.70
2022-11-15T14:42:49.128Z,50.13
2022-11-15T14:45:21.919Z,46.13
2022-11-15T14:47:50.154Z,46.10
2022-11-15T14:50:20.529Z,43.72
2022-11-15T14:52:48.934Z,51.28
2022-11-15T14:55:22.183Z,46.03
2022-11-15T14:57:49.672Z,44.72
2022-11-15T15:00:17.630Z,48.95
2022-11-15T15:02:47.183Z,43.40
2022-11-15T15:05:43.545Z,42.83
2022-11-15T15:08:11.863Z,43.40
2022-11-15T15:10:42.679Z,37.97
2022-11-15T15:13:21.944Z,37.88
2022-11-15T15:15:50.823Z,44.00
2022-11-15T15:18:20.887Z,41.03
2022-11-15T15:20:57.605Z,43.10
2022-11-15T15:23:26.799Z,40.75
2022-11-15T15:25:54.515Z,42.40
2022-11-15T15:28:22.092Z,37.80
2022-11-15T15:30:50.708Z,41.97
2022-11-15T15:33:18.057Z,45.73
2022-11-15T15:35:45.757Z,43.45
2022-11-15T15:38:13.912Z,37.25
2022-11-15T15:40:41.617Z,36.65
2022-11-15T15:43:10.522Z,40.45
2022-11-15T15:45:41.445Z,35.33
2022-11-15T15:48:16.893Z,40.90
2022-11-15T15:50:44.817Z,38.58
2022-11-15T15:53:13.735Z,41.58
2022-11-15T15:55:41.575Z,40.05
2022-11-15T15:58:09.533Z,41.30
2022-11-15T16:00:38.063Z,39.47
2022-11-15T16:03:05.896Z,43.80
2022-11-15T16:05:33.242Z,41.00
2022-11-15T16:08:00.926Z,40.92
2022-11-15T16:10:31.312Z,41.30
2022-11-15T16:12:59.293Z,44.00
2022-11-15T16:15:31.312Z,41.45
2022-11-15T16:18:00.255Z,45.25
2022-11-15T16:20:45.744Z,39.30
2022-11-15T16:23:15.473Z,40.13
2022-11-15T16:25:46.155Z,42.83
2022-11-15T16:28:24.465Z,43.35
2022-11-15T16:31:02.560Z,40.92
2022-11-15T16:33:30.516Z,40.15
2022-11-15T16:35:58.465Z,38.67
2022-11-15T16:38:26.297Z,38.75
2022-11-15T16:40:53.713Z,45.17
2022-11-15T16:43:21.136Z,42.78
2022-11-15T16:45:49.768Z,43.90
2022-11-15T16:48:28.288Z,41.13
2022-11-15T16:50:57.748Z,38.42
2022-11-15T16:53:26.751Z,43.20
2022-11-15T16:55:55.405Z,44.15
2022-11-15T16:58:22.812Z,45.58
2022-11-15T17:00:54.194Z,39.13
2022-11-15T17:03:25.030Z,42.67
2022-11-15T17:05:52.728Z,39.83
2022-11-15T17:08:22.257Z,74.90
2022-11-15T17:10:50.373Z,51.03
2022-11-15T17:13:17.808Z,48.63
2022-11-15T17:15:45.097Z,40.47
2022-11-15T17:18:15.971Z,40.05
2022-11-15T17:20:43.728Z,37.72
2022-11-15T17:23:15.195Z,39.83
2022-11-15T17:25:43.060Z,33.57
2022-11-15T17:28:11.346Z,35.08
2022-11-15T17:30:42.459Z,37.38
2022-11-15T17:33:09.696Z,29.48
2022-11-15T17:35:36.979Z,31.10
2022-11-15T17:38:04.644Z,28.27
2022-11-15T17:40:31.941Z,29.05
2022-11-15T17:42:59.514Z,28.05
2022-11-15T17:45:27.024Z,31.67
2022-11-15T17:47:54.403Z,30.50
2022-11-15T17:50:21.724Z,34.13
2022-11-15T17:52:48.988Z,38.80
2022-11-15T17:55:16.653Z,35.90
2022-11-15T17:57:44.676Z,30.65
2022-11-15T18:00:12.597Z,32.67
2022-11-15T18:02:40.593Z,36.20
2022-11-15T18:05:08.227Z,34.33
2022-11-15T18:07:35.571Z,32.30
2022-11-15T18:10:02.888Z,33.58
2022-11-15T18:12:30.844Z,33.30
2022-11-15T18:14:59.767Z,33.80
2022-11-15T18:17:27.067Z,34.78
2022-11-15T18:19:54.565Z,30.50
2022-11-15T18:22:22.366Z,34.08
2022-11-15T18:24:49.673Z,35.08
2022-11-15T18:27:16.961Z,34.73
2022-11-15T18:29:45.118Z,30.45
2022-11-15T18:32:15.271Z,34.58
2022-11-15T18:34:42.605Z,34.67
2022-11-15T18:37:10.157Z,30.38
2022-11-15T18:39:38.148Z,42.07
2022-11-15T18:42:05.496Z,30.55
2022-11-15T18:44:33.209Z,29.92
2022-11-15T18:47:01.129Z,30.05
2022-11-15T18:49:28.737Z,29.75
2022-11-15T18:51:57.236Z,33.83
2022-11-15T18:54:30.689Z,33.20
2022-11-15T18:56:58.521Z,27.35
2022-11-15T18:59:27.968Z,33.00
2022-11-15T19:01:56.286Z,37.67
2022-11-15T19:04:23.603Z,34.97
2022-11-15T19:06:51.317Z,39.55
2022-11-15T19:09:19.830Z,32.63
2022-11-15T19:11:49.406Z,33.83
2022-11-15T19:14:18.007Z,33.58
2022-11-15T19:16:52.624Z,32.87
2022-11-15T19:19:25.527Z,32.63
2022-11-15T19:21:53.713Z,33.75
2022-11-15T19:24:21.317Z,34.17
2022-11-15T19:26:48.704Z,38.33
2022-11-15T19:29:17.484Z,30.93
2022-11-15T19:31:45.034Z,30.63
2022-11-15T19:34:13.153Z,37.65
2022-11-15T19:36:42.555Z,32.53
2022-11-15T19:39:13.238Z,29.77
2022-11-15T19:41:43.610Z,30.00
2022-11-15T19:44:12.143Z,25.38
2022-11-15T19:46:40.280Z,25.10
2022-11-15T19:49:11.265Z,32.05
2022-11-15T19:51:42.822Z,27.88
2022-11-15T19:54:10.861Z,32.37
2022-11-15T19:56:40.083Z,32.53
2022-11-15T19:59:08.209Z,33.72
2022-11-15T20:01:38.888Z,37.42
2022-11-15T20:04:07.108Z,33.53
2022-11-15T20:06:37.687Z,37.80
2022-11-15T20:09:05.011Z,34.17
2022-11-15T20:11:33.768Z,37.60
2022-11-15T20:14:06.666Z,31.95
2022-11-15T20:16:34.145Z,33.63
2022-11-15T20:19:01.543Z,34.77
2022-11-15T20:21:29.064Z,32.97
2022-11-15T20:23:56.770Z,33.22
2022-11-15T20:26:24.270Z,35.17
2022-11-15T20:28:52.471Z,35.75
2022-11-15T20:31:20.172Z,28.80
2022-11-15T20:33:47.564Z,29.80
2022-11-15T20:36:15.943Z,28.98
2022-11-15T20:38:45.033Z,33.55
2022-11-15T20:41:13.398Z,36.72
2022-11-15T20:43:44.224Z,37.33
2022-11-15T20:46:12.971Z,39.38
2022-11-15T20:48:40.725Z,39.65
2022-11-15T20:51:12.380Z,35.80
2022-11-15T20:53:40.566Z,40.58
2022-11-15T20:56:11.934Z,44.90
2022-11-15T20:58:39.717Z,39.08
2022-11-15T21:01:08.960Z,33.92
2022-11-15T21:03:37.364Z,34.92
2022-11-15T21:06:04.836Z,42.70
2022-11-15T21:08:50.616Z,46.40
2022-11-15T21:11:37.081Z,45.75
2022-11-15T21:14:08.944Z,40.45
2022-11-15T21:16:37.658Z,43.40
2022-11-15T21:19:06.225Z,47.67
2022-11-15T21:21:33.955Z,45.33
2022-11-15T21:24:06.642Z,46.70
2022-11-15T21:26:34.826Z,48.33
2022-11-15T21:29:02.878Z,47.25
2022-11-15T21:31:30.699Z,50.05
2022-11-15T21:33:58.403Z,50.00
2022-11-15T21:36:26.039Z,49.28
2022-11-15T21:38:54.031Z,50.13
2022-11-15T21:41:21.909Z,48.05
2022-11-15T21:43:49.828Z,47.30
2022-11-15T21:46:17.951Z,45.97
2022-11-15T21:48:45.192Z,49.05
2022-11-15T21:51:12.884Z,44.28
2022-11-15T21:53:40.718Z,46.72
2022-11-15T21:56:09.156Z,42.50
2022-11-15T21:58:36.878Z,44.93
2022-11-15T22:01:23.369Z,55.05
2022-11-15T22:03:51.895Z,50.83
2022-11-15T22:06:19.264Z,52.15
2022-11-15T22:08:47.103Z,50.30
2022-11-15T22:11:15.027Z,49.70
2022-11-15T22:13:42.831Z,47.03
2022-11-15T22:16:10.790Z,49.47
2022-11-15T22:18:39.166Z,50.50
2022-11-15T22:21:15.359Z,48.58
2022-11-15T22:23:43.755Z,51.50
2022-11-15T22:26:14.285Z,48.28
2022-11-15T22:28:42.503Z,50.20
2022-11-15T22:31:11.204Z,47.97
2022-11-15T22:33:39.325Z,49.00
2022-11-15T22:36:07.708Z,50.47
2022-11-15T22:38:35.280Z,53.65
2022-11-15T22:41:03.044Z,50.03
2022-11-15T22:43:31.082Z,51.42
2022-11-15T22:46:00.304Z,48.92
2022-11-15T22:48:30.851Z,46.97
2022-11-15T22:50:59.117Z,49.80
2022-11-15T22:53:27.062Z,47.05
2022-11-15T22:55:59.648Z,50.42
2022-11-15T22:58:28.900Z,46.05
2022-11-15T23:00:58.814Z,43.17
2022-11-15T23:03:27.938Z,47.42
2022-11-15T23:05:55.565Z,43.47
2022-11-15T23:08:24.248Z,41.53
2022-11-15T23:11:09.829Z,44.42
2022-11-15T23:13:37.201Z,47.00
2022-11-15T23:16:22.700Z,40.72
2022-11-15T23:18:52.236Z,43.67
2022-11-15T23:21:45.104Z,41.20
2022-11-15T23:24:14.258Z,37.63
2022-11-15T23:26:42.233Z,33.80
2022-11-15T23:29:11.581Z,36.75
2022-11-15T23:32:02.003Z,42.05
2022-11-15T23:34:35.795Z,45.70
2022-11-15T23:37:03.686Z,43.55
2022-11-15T23:39:32.228Z,38.83
2022-11-15T23:42:02.072Z,43.17
2022-11-15T23:44:33.422Z,43.92
2022-11-15T23:47:01.458Z,43.85
2022-11-15T23:49:28.894Z,46.05
2022-11-15T23:51:56.255Z,42.23
2022-11-15T23:54:23.604Z,43.20
2022-11-15T23:56:51.137Z,40.20
2022-11-15T23:59:18.607Z,37.08
